Time;durP1;ratioP1;P1;durP2;ratioP2;P2;SDS_P1;SDS_P2;PMS_P1;PMS_P2;Temp;Humidity;BMP_temperature;BMP_pressure;BME280_temperature;BME280_humidity;BME280_pressure;Samples;Min_cycle;Max_cycle;Signal;HPM_P1;HPM_P2
2023/02/07 00:01:13;;;;;;;20.20;13.97;;;-3.10;99.90;;;;;;6225970;23;20462;-88
2023/02/07 00:03:40;;;;;;;16.10;11.50;;;-3.20;99.90;;;;;;6233899;22;20405;-89
2023/02/07 00:06:12;;;;;;;18.33;11.70;;;-3.10;99.90;;;;;;6236047;23;20433;-86
2023/02/07 00:08:40;;;;;;;21.70;12.57;;;-3.10;99.90;;;;;;6239583;22;20432;-89
2023/02/07 00:11:08;;;;;;;17.50;11.70;;;-2.30;99.90;;;;;;6236300;22;20414;-88
2023/02/07 00:13:35;;;;;;;17.47;11.33;;;-0.70;99.90;;;;;;6234157;23;20426;-90
2023/02/07 00:16:02;;;;;;;19.70;12.50;;;-3.20;99.90;;;;;;6237293;23;20433;-90
2023/02/07 00:18:29;;;;;;;17.50;12.80;;;-3.30;99.90;;;;;;6236941;23;20397;-91
2023/02/07 00:20:59;;;;;;;19.00;12.23;;;-3.50;99.90;;;;;;6237878;23;20397;-88
2023/02/07 00:23:27;;;;;;;19.20;13.73;;;-3.50;99.90;;;;;;6240786;23;20437;-88
2023/02/07 00:25:54;;;;;;;17.80;12.33;;;-3.50;99.90;;;;;;6261591;22;20441;-88
2023/02/07 00:28:22;;;;;;;21.03;13.13;;;-3.50;99.90;;;;;;6268379;23;20439;-89
2023/02/07 00:30:49;;;;;;;17.83;12.00;;;-3.40;99.90;;;;;;6269350;23;20393;-89
2023/02/07 00:33:16;;;;;;;18.70;13.07;;;-3.40;99.90;;;;;;6272719;22;20421;-88
2023/02/07 00:35:43;;;;;;;18.23;12.17;;;-3.40;99.90;;;;;;6270616;22;20404;-89
2023/02/07 00:38:10;;;;;;;19.27;11.10;;;-3.40;99.90;;;;;;6270926;23;20430;-88
2023/02/07 00:40:38;;;;;;;19.83;13.23;;;-3.50;99.90;;;;;;6270486;22;20480;-88
2023/02/07 00:43:05;;;;;;;16.83;12.73;;;-3.00;99.90;;;;;;6271250;23;20391;-88
2023/02/07 00:45:32;;;;;;;17.17;11.83;;;-3.60;99.90;;;;;;6270827;22;20380;-87
2023/02/07 00:47:58;;;;;;;17.87;12.33;;;-3.60;99.90;;;;;;6271267;23;20382;-90
2023/02/07 00:50:25;;;;;;;18.30;12.67;;;-3.50;99.90;;;;;;6270932;22;20453;-88
2023/02/07 00:52:52;;;;;;;18.27;12.50;;;-4.40;99.90;;;;;;6272275;22;20418;-94
2023/02/07 00:55:19;;;;;;;19.80;13.37;;;-3.00;99.90;;;;;;6271037;23;20433;-89
2023/02/07 00:57:47;;;;;;;15.83;10.50;;;-3.60;99.90;;;;;;6270549;22;20422;-88
2023/02/07 01:00:15;;;;;;;18.47;11.53;;;-3.70;99.90;;;;;;6271178;23;20414;-88
2023/02/07 01:02:42;;;;;;;16.37;11.93;;;-3.60;99.90;;;;;;6272285;22;20397;-89
2023/02/07 01:05:09;;;;;;;17.30;12.47;;;-3.80;99.90;;;;;;6274263;22;20420;-87
2023/02/07 01:07:36;;;;;;;15.03;11.10;;;-4.20;99.90;;;;;;6271785;22;20456;-88
2023/02/07 01:10:04;;;;;;;15.93;10.30;;;-3.60;99.90;;;;;;6232766;22;20444;-84
2023/02/07 01:17:43;;;;;;;16.20;11.30;;;-3.60;99.90;;;;;;6259721;22;20461;-88
2023/02/07 01:20:11;;;;;;;20.70;12.40;;;-3.70;99.90;;;;;;6271224;22;20413;-89
2023/02/07 01:22:38;;;;;;;19.97;11.73;;;-3.70;99.90;;;;;;6271232;22;20412;-87
2023/02/07 01:25:07;;;;;;;17.63;11.30;;;-3.80;99.90;;;;;;6269081;23;20440;-88
2023/02/07 01:27:35;;;;;;;20.33;13.47;;;-3.70;99.90;;;;;;6272092;22;20458;-88
2023/02/07 01:30:02;;;;;;;15.23;10.10;;;-3.70;99.90;;;;;;6271567;22;20393;-87
2023/02/07 01:32:31;;;;;;;17.40;11.67;;;-3.90;99.90;;;;;;6271389;22;20413;-86
2023/02/07 01:35:00;;;;;;;19.13;12.47;;;-3.60;99.90;;;;;;6273776;22;20398;-88
2023/02/07 01:37:27;;;;;;;26.07;12.17;;;-4.20;99.90;;;;;;6273926;22;20397;-88
2023/02/07 01:39:54;;;;;;;20.40;10.77;;;-1.10;99.90;;;;;;6267115;22;20467;-89
2023/02/07 01:42:24;;;;;;;18.23;11.67;;;-3.70;99.90;;;;;;6270461;23;20614;-90
2023/02/07 01:45:05;;;;;;;19.33;11.63;;;-3.80;99.90;;;;;;6269276;23;20405;-87
2023/02/07 01:47:33;;;;;;;16.00;11.20;;;-3.80;99.90;;;;;;6269417;22;20520;-86
2023/02/07 01:50:03;;;;;;;21.17;11.70;;;-4.00;99.90;;;;;;6270930;22;20399;-87
2023/02/07 01:55:10;;;;;;;14.30;10.53;;;-3.80;99.90;;;;;;6255780;22;20444;-89
2023/02/07 01:57:38;;;;;;;25.13;12.83;;;-3.90;99.90;;;;;;6272129;22;20429;-86
2023/02/07 02:00:06;;;;;;;18.30;10.40;;;-1.70;99.90;;;;;;6259042;22;20461;-85
2023/02/07 02:05:15;;;;;;;18.20;11.80;;;-3.90;99.90;;;;;;6247912;22;20455;-88
2023/02/07 02:07:42;;;;;;;16.97;10.57;;;-3.90;99.90;;;;;;6273519;22;20461;-87
2023/02/07 02:10:15;;;;;;;16.03;10.80;;;-4.00;99.90;;;;;;6271678;22;20431;-86
2023/02/07 02:18:13;;;;;;;17.93;12.10;;;-3.80;99.90;;;;;;6265309;22;20472;-89
2023/02/07 02:33:53;;;;;;;21.03;11.60;;;-4.10;99.90;;;;;;6257683;22;20460;-80
2023/02/07 02:41:37;;;;;;;19.40;10.93;;;-4.20;99.90;;;;;;6245223;22;20476;-87
2023/02/07 02:44:11;;;;;;;18.57;11.13;;;-4.30;99.90;;;;;;6248407;22;20444;-85
2023/02/07 02:46:41;;;;;;;20.17;12.23;;;-4.30;99.90;;;;;;6255599;22;20450;-88
2023/02/07 02:49:13;;;;;;;19.53;10.70;;;-4.40;99.90;;;;;;6270829;22;20420;-88
2023/02/07 02:57:11;;;;;;;15.70;9.60;;;-4.20;99.90;;;;;;6235312;22;20448;-88
2023/02/07 03:23:17;;;;;;;19.67;12.10;;;-4.40;99.90;;;;;;6229156;22;20452;-88
2023/02/07 03:33:31;;;;;;;19.53;11.20;;;-4.30;99.90;;;;;;6213008;22;21528;-78
2023/02/07 03:36:07;;;;;;;15.03;9.00;;;-4.40;99.90;;;;;;6275602;22;20373;-78
2023/02/07 05:04:39;;;;;;;18.20;10.00;;;-4.60;99.90;;;;;;6243295;22;20437;-78
2023/02/07 05:07:06;;;;;;;18.90;10.80;;;-4.50;99.90;;;;;;6263395;22;20453;-79
2023/02/07 05:09:33;;;;;;;8.30;7.40;;;-4.00;99.90;;;;;;6258313;22;20532;-79
2023/02/07 05:12:00;;;;;;;15.37;8.27;;;-4.20;99.90;;;;;;6267589;23;20420;-79
2023/02/07 05:14:28;;;;;;;14.07;10.03;;;-4.50;99.90;;;;;;6269474;23;20441;-79
2023/02/07 05:16:55;;;;;;;20.27;10.30;;;-4.90;99.90;;;;;;6273189;22;20410;-81
2023/02/07 05:19:22;;;;;;;15.43;10.53;;;-4.80;99.90;;;;;;6261180;22;20723;-81
2023/02/07 05:21:50;;;;;;;17.10;11.20;;;-4.60;99.90;;;;;;6265024;22;20440;-81
2023/02/07 05:24:17;;;;;;;24.30;12.73;;;-1.80;99.90;;;;;;6266190;23;20464;-82
2023/02/07 05:26:44;;;;;;;17.57;10.67;;;-4.80;99.90;;;;;;6262483;22;20513;-82
2023/02/07 05:29:11;;;;;;;14.83;10.23;;;-5.00;99.90;;;;;;6275496;22;20386;-81
2023/02/07 05:39:26;;;;;;;27.00;12.63;;;-4.80;99.90;;;;;;6252250;22;20444;-80
2023/02/07 05:41:53;;;;;;;18.90;10.60;;;-4.80;99.90;;;;;;6258528;22;20463;-81
2023/02/07 05:44:20;;;;;;;18.87;10.60;;;-4.80;99.90;;;;;;6270087;22;20476;-82
2023/02/07 05:51:57;;;;;;;16.43;10.10;;;-4.90;99.90;;;;;;6252533;22;20440;-80
2023/02/07 05:57:01;;;;;;;20.03;10.90;;;-4.80;99.90;;;;;;6213841;22;20426;-80
2023/02/07 05:59:28;;;;;;;17.63;11.93;;;-5.30;99.90;;;;;;6271460;22;20385;-79
2023/02/07 06:01:55;;;;;;;18.20;10.60;;;-4.90;99.90;;;;;;6270588;22;20414;-81
2023/02/07 06:04:22;;;;;;;18.80;10.20;;;-5.00;99.90;;;;;;6252197;22;20418;-74
2023/02/07 06:06:49;;;;;;;14.13;10.00;;;-5.00;99.90;;;;;;6243498;23;20488;-73
2023/02/07 06:09:16;;;;;;;23.23;10.20;;;-4.90;99.90;;;;;;6240073;23;20409;-71
2023/02/07 06:11:42;;;;;;;17.80;10.07;;;-4.80;99.90;;;;;;6239735;23;20405;-72
2023/02/07 06:14:10;;;;;;;16.23;10.27;;;-4.80;99.90;;;;;;6240771;23;20409;-74
2023/02/07 06:16:37;;;;;;;16.70;11.10;;;-4.90;99.90;;;;;;6239698;23;20418;-75
2023/02/07 06:19:04;;;;;;;20.60;11.23;;;-5.00;99.90;;;;;;6242239;23;20954;-72
2023/02/07 06:21:31;;;;;;;12.10;8.50;;;-4.90;99.90;;;;;;6239326;23;20455;-72
2023/02/07 06:23:57;;;;;;;11.90;9.30;;;-5.00;99.90;;;;;;6239909;23;20436;-71
2023/02/07 06:26:24;;;;;;;13.50;9.33;;;-4.80;99.90;;;;;;6241180;23;20925;-73
2023/02/07 06:28:51;;;;;;;15.67;10.40;;;-4.90;99.90;;;;;;6241206;23;20409;-74
2023/02/07 06:31:19;;;;;;;14.40;9.33;;;-4.90;99.90;;;;;;6239180;23;20405;-73
2023/02/07 06:33:46;;;;;;;14.23;9.20;;;-5.00;99.90;;;;;;6238669;23;20412;-74
2023/02/07 06:36:12;;;;;;;20.63;9.37;;;-5.00;99.90;;;;;;6240153;23;20440;-74
2023/02/07 06:38:39;;;;;;;16.77;10.30;;;-5.00;99.90;;;;;;6239508;23;20417;-73
2023/02/07 06:41:09;;;;;;;11.80;9.37;;;-5.00;99.90;;;;;;6238989;23;20406;-73
2023/02/07 06:43:36;;;;;;;14.20;9.20;;;-5.00;99.90;;;;;;6238646;23;20418;-74
2023/02/07 06:46:03;;;;;;;18.17;11.53;;;-4.90;99.90;;;;;;6239531;23;20412;-74
2023/02/07 06:48:31;;;;;;;12.40;9.03;;;-4.80;99.90;;;;;;6239102;23;20479;-74
2023/02/07 06:50:58;;;;;;;19.30;10.17;;;-4.80;99.90;;;;;;6239000;23;20405;-74
2023/02/07 06:53:25;;;;;;;18.23;10.37;;;-4.80;99.90;;;;;;6239173;23;20432;-74
2023/02/07 06:55:52;;;;;;;16.67;9.57;;;-4.80;99.90;;;;;;6238739;23;20730;-75
2023/02/07 06:58:19;;;;;;;17.93;10.33;;;-4.90;99.90;;;;;;6238362;23;20446;-74
2023/02/07 07:00:46;;;;;;;13.37;7.37;;;-4.80;99.90;;;;;;6238872;23;20910;-74
2023/02/07 07:03:14;;;;;;;17.43;10.43;;;-4.70;99.90;;;;;;6239406;23;20405;-74
2023/02/07 07:05:42;;;;;;;14.80;9.50;;;-4.80;99.90;;;;;;6239296;23;20415;-74
2023/02/07 07:08:10;;;;;;;14.70;9.90;;;-4.70;99.90;;;;;;6238911;23;20441;-73
2023/02/07 07:10:37;;;;;;;14.60;9.07;;;-4.70;99.90;;;;;;6238810;23;20404;-73
2023/02/07 07:13:04;;;;;;;16.17;9.30;;;-4.70;99.90;;;;;;6238906;23;20554;-73
2023/02/07 07:15:31;;;;;;;15.57;9.40;;;-4.70;99.90;;;;;;6238881;23;20409;-75
2023/02/07 07:17:57;;;;;;;14.23;10.23;;;-4.60;99.90;;;;;;6238696;23;20900;-74
2023/02/07 07:20:24;;;;;;;15.10;9.13;;;-4.60;99.90;;;;;;6239069;23;20403;-73
2023/02/07 07:22:52;;;;;;;16.23;10.03;;;-4.70;99.90;;;;;;6238891;23;20473;-76
2023/02/07 07:25:19;;;;;;;15.83;9.67;;;-4.60;99.90;;;;;;6238830;23;20456;-76
2023/02/07 07:27:46;;;;;;;20.23;10.53;;;-4.60;99.90;;;;;;6238721;23;20448;-74
2023/02/07 07:30:14;;;;;;;13.67;9.00;;;-4.50;99.90;;;;;;6238243;23;20933;-74
2023/02/07 07:32:41;;;;;;;15.27;8.97;;;-4.50;99.90;;;;;;6238840;23;20405;-74
2023/02/07 07:35:08;;;;;;;15.27;9.83;;;-4.50;99.90;;;;;;6239199;23;20420;-73
2023/02/07 07:37:34;;;;;;;20.57;9.60;;;-4.40;99.90;;;;;;6238887;23;20402;-74
2023/02/07 07:40:03;;;;;;;13.90;9.90;;;-4.40;99.90;;;;;;6239474;23;20404;-74
2023/02/07 07:42:30;;;;;;;18.53;11.13;;;-4.40;99.90;;;;;;6238894;23;20596;-74
2023/02/07 07:44:57;;;;;;;30.73;10.43;;;-4.40;99.90;;;;;;6239762;23;20598;-76
2023/02/07 07:47:26;;;;;;;21.33;10.60;;;-4.50;99.90;;;;;;6238814;23;20969;-74
2023/02/07 07:49:52;;;;;;;14.20;10.07;;;-4.40;99.90;;;;;;6240113;23;20914;-74
2023/02/07 07:52:19;;;;;;;12.87;9.90;;;-4.40;99.90;;;;;;6238548;23;20934;-74
2023/02/07 07:54:46;;;;;;;18.30;9.13;;;-4.40;99.90;;;;;;6238904;23;20423;-75
2023/02/07 07:57:14;;;;;;;15.87;9.67;;;-4.20;99.90;;;;;;6238821;23;20456;-76
2023/02/07 07:59:41;;;;;;;20.47;9.43;;;-4.20;99.90;;;;;;6238917;23;20406;-74
2023/02/07 08:02:10;;;;;;;15.33;9.43;;;-4.20;99.90;;;;;;6238827;23;20407;-75
2023/02/07 08:04:36;;;;;;;21.10;8.27;;;-4.10;99.90;;;;;;6238033;23;20740;-74
2023/02/07 08:07:03;;;;;;;12.90;9.90;;;-4.10;99.90;;;;;;6238670;23;20457;-74
2023/02/07 08:09:30;;;;;;;16.40;10.67;;;-4.10;99.90;;;;;;6238230;23;20425;-74
2023/02/07 08:11:57;;;;;;;15.97;10.73;;;-4.00;99.90;;;;;;6238205;23;20915;-74
2023/02/07 08:14:25;;;;;;;17.40;10.93;;;-3.90;99.90;;;;;;6238746;23;20401;-74
2023/02/07 08:16:51;;;;;;;19.63;11.00;;;-3.70;99.90;;;;;;6238936;23;20405;-74
2023/02/07 08:19:18;;;;;;;15.27;10.17;;;-3.70;99.90;;;;;;6238436;23;20401;-74
2023/02/07 08:21:45;;;;;;;16.50;10.97;;;-3.60;99.90;;;;;;6238686;23;20414;-74
2023/02/07 08:24:12;;;;;;;16.20;10.60;;;-3.50;99.90;;;;;;6238512;23;20558;-74
2023/02/07 08:26:38;;;;;;;16.77;10.13;;;-3.50;99.90;;;;;;6238561;23;20408;-74
2023/02/07 08:29:06;;;;;;;17.20;10.60;;;-3.50;99.90;;;;;;6238627;23;20449;-75
2023/02/07 08:31:34;;;;;;;16.73;10.50;;;-3.40;99.90;;;;;;6238191;23;20467;-74
2023/02/07 08:34:00;;;;;;;16.87;9.10;;;-3.40;99.90;;;;;;6238110;23;20909;-74
2023/02/07 08:36:27;;;;;;;16.53;10.00;;;-3.20;99.90;;;;;;6240080;23;20763;-74
2023/02/07 08:38:54;;;;;;;17.70;10.50;;;-3.10;99.90;;;;;;6239379;23;20670;-74
2023/02/07 08:41:21;;;;;;;15.47;10.87;;;-2.90;99.90;;;;;;6240502;23;20434;-74
2023/02/07 08:43:48;;;;;;;18.93;11.07;;;-2.70;99.90;;;;;;6240178;23;20401;-76
2023/02/07 08:46:14;;;;;;;24.90;10.87;;;-2.60;99.90;;;;;;6240174;23;20392;-74
2023/02/07 08:48:43;;;;;;;15.13;9.83;;;-2.70;99.90;;;;;;6240115;23;20473;-76
2023/02/07 08:51:10;;;;;;;14.70;10.40;;;-2.60;99.90;;;;;;6240756;23;20410;-74
2023/02/07 08:53:37;;;;;;;15.80;10.30;;;-2.50;99.90;;;;;;6241367;23;20462;-74
2023/02/07 08:56:04;;;;;;;14.17;10.40;;;-2.20;99.90;;;;;;6241556;23;20436;-74
2023/02/07 08:58:30;;;;;;;21.00;9.67;;;-1.80;99.90;;;;;;6241188;23;20787;-74
2023/02/07 09:00:57;;;;;;;14.53;10.10;;;-1.50;99.90;;;;;;6240758;23;20410;-75
2023/02/07 09:03:24;;;;;;;12.50;8.33;;;-1.30;99.90;;;;;;6240180;23;20941;-74
2023/02/07 09:05:57;;;;;;;14.30;10.30;;;-1.00;99.90;;;;;;6240763;23;20414;-75
2023/02/07 09:08:24;;;;;;;13.60;9.23;;;;;;;;;;6240146;23;20437;-76
2023/02/07 09:10:51;;;;;;;15.10;9.43;;;;;;;;;;6240123;23;20402;-79
2023/02/07 09:13:18;;;;;;;17.20;10.10;;;;;;;;;;6239828;23;20489;-81
2023/02/07 09:15:45;;;;;;;14.00;11.00;;;1.40;99.90;;;;;;6240171;23;20754;-76
2023/02/07 09:18:12;;;;;;;13.80;10.17;;;1.70;99.90;;;;;;6240073;23;20406;-75
2023/02/07 09:20:39;;;;;;;14.47;10.47;;;2.00;99.90;;;;;;6239285;23;20624;-76
2023/02/07 09:23:19;;;;;;;17.07;9.20;;;2.20;99.90;;;;;;6239858;23;21061;-75
2023/02/07 09:25:47;;;;;;;17.20;10.53;;;2.10;99.90;;;;;;6240155;23;20399;-75
2023/02/07 09:28:14;;;;;;;22.43;10.90;;;1.90;99.90;;;;;;6239730;23;20442;-76
2023/02/07 09:30:41;;;;;;;15.67;11.90;;;2.10;99.90;;;;;;6239862;23;20432;-75
2023/02/07 09:33:08;;;;;;;14.03;10.80;;;2.80;99.90;;;;;;6239569;23;20415;-75
2023/02/07 09:35:37;;;;;;;12.90;11.03;;;3.10;99.90;;;;;;6239977;23;20394;-75
2023/02/07 09:38:04;;;;;;;16.40;11.43;;;3.30;99.90;;;;;;6240052;23;20410;-76
2023/02/07 09:40:34;;;;;;;13.17;11.17;;;2.90;99.90;;;;;;6239979;23;20412;-75
2023/02/07 09:43:11;;;;;;;15.00;11.80;;;3.00;99.90;;;;;;6240380;23;20405;-75
2023/02/07 09:45:42;;;;;;;14.63;12.37;;;3.00;99.90;;;;;;6239390;23;20379;-75
2023/02/07 09:48:16;;;;;;;19.73;12.20;;;1.80;99.90;;;;;;6239037;23;20423;-75
2023/02/07 09:50:48;;;;;;;17.30;12.77;;;0.70;99.90;;;;;;6240137;23;20387;-75
2023/02/07 09:53:19;;;;;;;16.30;11.90;;;0.80;99.90;;;;;;6240180;23;20431;-75
2023/02/07 09:55:51;;;;;;;18.30;11.60;;;0.30;99.90;;;;;;6240321;23;20880;-75
2023/02/07 09:58:25;;;;;;;14.27;10.93;;;0.70;99.90;;;;;;6239689;23;21098;-78
2023/02/07 10:01:00;;;;;;;19.67;11.40;;;1.30;99.90;;;;;;6240724;23;20378;-79
2023/02/07 10:03:28;;;;;;;14.17;11.93;;;1.70;99.90;;;;;;6240952;23;20404;-77
2023/02/07 10:05:59;;;;;;;13.83;10.80;;;2.30;99.90;;;;;;6240327;23;20422;-81
2023/02/07 10:08:27;;;;;;;14.47;11.43;;;3.50;99.90;;;;;;6240784;23;20438;-80
2023/02/07 10:11:08;;;;;;;17.93;11.20;;;4.10;99.90;;;;;;6239985;23;20394;-79
2023/02/07 10:13:52;;;;;;;15.50;11.63;;;4.30;99.90;;;;;;6239513;23;20417;-76
2023/02/07 10:16:29;;;;;;;16.10;11.50;;;4.50;99.90;;;;;;6239751;23;20394;-75
2023/02/07 10:19:03;;;;;;;15.93;12.60;;;4.60;99.90;;;;;;6238907;23;20860;-76
2023/02/07 10:21:36;;;;;;;13.73;11.27;;;3.80;99.90;;;;;;6239686;23;20430;-75
2023/02/07 10:24:30;;;;;;;15.30;11.30;;;3.90;99.90;;;;;;6239802;23;20394;-75
2023/02/07 10:27:04;;;;;;;14.70;11.47;;;4.50;99.90;;;;;;6239260;23;20406;-75
2023/02/07 10:29:48;;;;;;;14.10;11.90;;;5.00;99.90;;;;;;6239597;23;20941;-76
2023/02/07 10:32:20;;;;;;;14.87;11.70;;;5.70;99.90;;;;;;6239380;23;20914;-77
2023/02/07 10:34:49;;;;;;;16.80;12.40;;;5.30;99.90;;;;;;6239215;23;20474;-76
2023/02/07 10:37:20;;;;;;;14.90;11.80;;;5.60;99.90;;;;;;6238688;23;20721;-75
2023/02/07 10:39:54;;;;;;;15.03;11.70;;;5.70;99.90;;;;;;6239655;23;20406;-76
2023/02/07 10:42:22;;;;;;;16.73;12.20;;;6.10;99.90;;;;;;6238979;23;20405;-76
2023/02/07 10:44:49;;;;;;;15.70;12.23;;;6.20;99.90;;;;;;6239651;23;20412;-76
2023/02/07 10:47:17;;;;;;;20.57;12.73;;;4.80;99.90;;;;;;6239744;23;20414;-76
2023/02/07 10:49:46;;;;;;;14.87;11.03;;;5.60;99.90;;;;;;6239305;23;21045;-76
2023/02/07 10:52:26;;;;;;;16.77;13.60;;;6.40;99.90;;;;;;6238424;23;20418;-76
2023/02/07 10:54:54;;;;;;;14.63;13.00;;;6.30;99.90;;;;;;6239882;23;20722;-76
2023/02/07 10:57:23;;;;;;;16.17;10.63;;;4.90;99.90;;;;;;6238839;23;20947;-76
2023/02/07 10:59:58;;;;;;;15.53;11.80;;;6.20;99.90;;;;;;6239302;23;20729;-75
2023/02/07 11:02:48;;;;;;;15.87;11.83;;;6.80;99.90;;;;;;6239147;23;20416;-76
2023/02/07 11:05:31;;;;;;;17.73;12.53;;;7.40;99.90;;;;;;6238998;23;20399;-76
2023/02/07 11:08:00;;;;;;;14.97;11.87;;;4.50;99.90;;;;;;6238605;23;20379;-76
2023/02/07 11:10:32;;;;;;;17.33;12.17;;;5.40;99.90;;;;;;6239245;23;20927;-76
2023/02/07 11:13:01;;;;;;;14.10;10.60;;;3.80;99.90;;;;;;6239359;23;20426;-76
2023/02/07 11:15:47;;;;;;;12.07;9.40;;;5.30;99.90;;;;;;6239096;23;20394;-76
2023/02/07 11:18:36;;;;;;;11.57;10.27;;;6.10;99.90;;;;;;6239541;23;20402;-76
2023/02/07 11:21:04;;;;;;;15.57;10.30;;;6.80;99.90;;;;;;6239966;23;20398;-76
2023/02/07 11:23:31;;;;;;;14.87;11.17;;;7.40;99.90;;;;;;6239976;23;20406;-76
2023/02/07 11:25:58;;;;;;;14.63;10.47;;;5.60;99.90;;;;;;6239279;23;20390;-75
2023/02/07 11:28:29;;;;;;;16.03;10.60;;;5.40;99.90;;;;;;6239147;23;20445;-76
2023/02/07 11:31:01;;;;;;;10.63;9.47;;;6.90;99.90;;;;;;6239492;23;20840;-76
2023/02/07 11:33:30;;;;;;;13.70;10.67;;;6.60;99.90;;;;;;6239973;23;20469;-75
2023/02/07 11:36:11;;;;;;;16.93;11.20;;;5.60;99.90;;;;;;6239664;23;20501;-76
2023/02/07 11:38:40;;;;;;;13.77;11.33;;;5.60;99.90;;;;;;6239076;23;20427;-76
2023/02/07 11:41:17;;;;;;;10.40;9.30;;;6.90;99.90;;;;;;6238785;23;20414;-76
2023/02/07 11:43:55;;;;;;;19.70;12.43;;;8.10;99.90;;;;;;6239578;23;20395;-76
2023/02/07 11:46:24;;;;;;;14.23;10.43;;;6.30;99.90;;;;;;6239951;23;20398;-76
2023/02/07 11:48:56;;;;;;;16.50;11.80;;;8.00;99.90;;;;;;6245934;23;20446;-76
2023/02/07 11:51:23;;;;;;;15.23;9.87;;;7.30;99.90;;;;;;6246509;23;20433;-76
2023/02/07 11:53:53;;;;;;;19.80;11.53;;;7.60;99.90;;;;;;6246330;23;20422;-76
2023/02/07 11:56:24;;;;;;;13.53;11.00;;;7.90;99.90;;;;;;6244349;23;20422;-76
2023/02/07 11:58:54;;;;;;;12.03;10.30;;;8.50;99.90;;;;;;6242532;23;20480;-76
2023/02/07 12:01:25;;;;;;;12.13;9.10;;;9.00;99.90;;;;;;6239650;23;20441;-76
2023/02/07 12:03:59;;;;;;;18.30;10.50;;;10.10;99.90;;;;;;6239717;23;20379;-76
2023/02/07 12:06:32;;;;;;;11.70;9.87;;;10.30;99.90;;;;;;6255157;22;20394;-83
2023/02/07 12:09:00;;;;;;;16.60;10.50;;;10.40;99.90;;;;;;6265258;23;20434;-81
2023/02/07 12:11:35;;;;;;;11.50;9.20;;;10.20;99.90;;;;;;6270661;23;20465;-81
2023/02/07 12:14:09;;;;;;;11.60;10.13;;;10.40;99.90;;;;;;6269673;23;20409;-82
2023/02/07 12:16:42;;;;;;;11.50;9.27;;;10.10;99.80;;;;;;6265240;23;20816;-81
2023/02/07 12:19:18;;;;;;;13.33;9.53;;;10.50;98.80;;;;;;6266475;23;20391;-81
2023/02/07 12:21:56;;;;;;;11.53;7.33;;;10.80;99.10;;;;;;6268421;23;20391;-81
2023/02/07 12:24:28;;;;;;;11.27;7.50;;;10.80;96.60;;;;;;6270657;23;20909;-82
2023/02/07 12:27:01;;;;;;;9.30;7.40;;;11.60;97.20;;;;;;6272480;23;20414;-81
2023/02/07 12:29:45;;;;;;;9.97;8.87;;;12.10;96.60;;;;;;6274228;22;20442;-81
2023/02/07 12:32:23;;;;;;;11.20;8.43;;;9.50;96.00;;;;;;6271978;23;20390;-81
2023/02/07 12:34:55;;;;;;;8.17;7.33;;;11.10;96.60;;;;;;6268385;23;20418;-80
2023/02/07 12:37:31;;;;;;;10.40;7.73;;;12.00;95.10;;;;;;6269289;23;20477;-82
2023/02/07 12:42:43;;;;;;;8.33;6.70;;;11.20;91.40;;;;;;6257079;22;20532;-84
2023/02/07 12:45:16;;;;;;;7.20;5.80;;;12.60;93.30;;;;;;6274684;22;20380;-81
2023/02/07 12:47:55;;;;;;;6.03;5.43;;;8.40;91.30;;;;;;6273196;22;20943;-82
2023/02/07 12:50:48;;;;;;;6.67;6.00;;;12.50;94.70;;;;;;6274919;22;20441;-79
2023/02/07 12:53:32;;;;;;;6.23;4.97;;;12.90;92.00;;;;;;6267636;22;20444;-80
2023/02/07 12:58:51;;;;;;;8.33;4.77;;;12.70;84.00;;;;;;6262075;22;20493;-77
2023/02/07 13:01:27;;;;;;;6.67;5.83;;;14.20;84.80;;;;;;6243903;23;20487;-77
2023/02/07 13:04:24;;;;;;;11.00;5.20;;;15.20;79.50;;;;;;6240098;23;20406;-78
2023/02/07 13:07:01;;;;;;;6.70;5.77;;;12.90;76.60;;;;;;6241929;23;20395;-78
2023/02/07 13:09:34;;;;;;;16.27;6.37;;;14.10;78.40;;;;;;6241477;23;20942;-78
2023/02/07 13:12:08;;;;;;;7.00;5.20;;;11.50;76.90;;;;;;6240255;23;20387;-78
2023/02/07 13:14:45;;;;;;;7.03;5.70;;;11.00;78.20;;;;;;6241330;23;20418;-80
2023/02/07 13:17:33;;;;;;;5.03;4.63;;;11.60;79.40;;;;;;6240924;23;20402;-77
2023/02/07 13:20:09;;;;;;;5.27;4.73;;;13.90;80.00;;;;;;6241462;23;20430;-77
2023/02/07 13:22:43;;;;;;;5.60;4.77;;;14.30;76.10;;;;;;6241204;23;20742;-78
2023/02/07 13:25:18;;;;;;;8.27;6.20;;;11.50;73.10;;;;;;6240659;22;20405;-78
2023/02/07 13:27:48;;;;;;;9.90;6.10;;;11.10;76.10;;;;;;6241148;22;20406;-78
2023/02/07 13:30:17;;;;;;;9.50;6.10;;;11.10;74.00;;;;;;6241340;23;20466;-78
2023/02/07 13:32:47;;;;;;;6.17;5.57;;;12.60;76.80;;;;;;6241001;23;20405;-78
2023/02/07 13:35:20;;;;;;;5.53;5.03;;;13.30;73.00;;;;;;6241091;23;20445;-78
2023/02/07 13:37:53;;;;;;;8.73;6.40;;;13.50;71.70;;;;;;6242117;23;20418;-78
2023/02/07 13:40:30;;;;;;;8.13;5.97;;;13.20;72.50;;;;;;6242046;22;20739;-78
2023/02/07 13:43:04;;;;;;;6.40;5.77;;;10.10;69.30;;;;;;6241451;23;20404;-78
2023/02/07 13:45:40;;;;;;;7.33;5.50;;;11.70;75.30;;;;;;6241615;22;20414;-79
2023/02/07 13:48:30;;;;;;;8.23;6.57;;;11.50;73.00;;;;;;6241040;23;20420;-79
2023/02/07 13:51:04;;;;;;;11.60;9.60;;;10.80;75.70;;;;;;6241933;23;20426;-77
2023/02/07 13:53:43;;;;;;;13.00;8.50;;;11.50;81.20;;;;;;6235665;23;20497;-77
2023/02/07 13:59:37;;;;;;;11.47;8.20;;;11.00;79.70;;;;;;6255277;23;20397;-79
2023/02/07 14:01:59;;;;;;;10.87;8.40;;;11.50;79.40;;;;;;6120711;23;20476;-79
2023/02/07 14:04:47;;;;;;;11.90;7.50;;;11.20;79.80;;;;;;6210209;22;20967;-79
2023/02/07 14:07:22;;;;;;;10.00;8.57;;;10.80;79.90;;;;;;6240181;23;20409;-79
2023/02/07 14:09:49;;;;;;;9.70;8.13;;;10.50;80.50;;;;;;6241447;23;20933;-78
2023/02/07 14:12:21;;;;;;;11.33;9.97;;;11.10;80.50;;;;;;6238159;23;20418;-78
2023/02/07 14:14:48;;;;;;;11.27;8.57;;;11.60;80.10;;;;;;6239801;23;20398;-78
2023/02/07 14:17:37;;;;;;;10.77;8.47;;;9.00;80.60;;;;;;6237193;23;20442;-77
2023/02/07 14:20:28;;;;;;;54.07;15.77;;;9.00;80.10;;;;;;6236048;23;20406;-79
2023/02/07 14:23:13;;;;;;;19.90;10.27;;;6.90;84.30;;;;;;6238742;23;20442;-80
2023/02/07 14:25:42;;;;;;;12.00;8.67;;;6.30;86.20;;;;;;6241513;22;20406;-79
2023/02/07 14:28:29;;;;;;;12.67;9.10;;;8.00;88.40;;;;;;6243445;22;20406;-80
2023/02/07 14:31:00;;;;;;;15.80;9.30;;;8.70;88.50;;;;;;6236577;23;20888;-77
2023/02/07 14:33:32;;;;;;;12.20;9.80;;;9.80;86.50;;;;;;6234853;23;20402;-78
2023/02/07 14:36:18;;;;;;;13.43;9.40;;;9.40;82.60;;;;;;6249165;22;20406;-83
2023/02/07 14:39:02;;;;;;;15.00;9.77;;;7.90;85.90;;;;;;6273932;22;20399;-83
2023/02/07 14:41:31;;;;;;;14.27;10.30;;;7.90;87.60;;;;;;6273831;22;20402;-82
2023/02/07 14:44:02;;;;;;;15.30;10.97;;;7.50;86.30;;;;;;6273502;22;20410;-83
2023/02/07 14:59:33;;;;;;;11.53;9.20;;;3.70;93.40;;;;;;6236557;22;20441;-94
2023/02/07 15:02:32;;;;;;;13.60;8.53;;;4.70;95.40;;;;;;6222536;23;20488;-82
2023/02/07 15:05:15;;;;;;;13.03;9.37;;;5.30;93.50;;;;;;6220395;23;20446;-83
2023/02/07 15:07:45;;;;;;;16.67;8.00;;;;;;;;;;6218982;23;20372;-92
2023/02/07 15:10:20;;;;;;;15.20;9.43;;;2.30;99.90;;;;;;6237078;23;20851;-93
2023/02/07 15:12:48;;;;;;;13.13;8.87;;;2.20;99.40;;;;;;6235560;23;20438;-93
2023/02/07 15:15:24;;;;;;;14.67;7.83;;;2.20;98.60;;;;;;6231649;23;20411;-94
2023/02/07 15:17:52;;;;;;;12.07;7.40;;;2.30;98.20;;;;;;6228618;23;20496;-94
2023/02/07 15:20:20;;;;;;;14.77;7.07;;;;;;;;;;6227877;23;20519;-94
2023/02/07 15:22:48;;;;;;;11.70;8.50;;;;;;;;;;6229305;23;20437;-92
2023/02/07 15:25:16;;;;;;;14.63;8.00;;;;;;;;;;6246249;22;20488;-93
2023/02/07 15:27:43;;;;;;;14.93;8.50;;;;;;;;;;6254727;23;20503;-91
2023/02/07 15:30:19;;;;;;;17.57;8.63;;;;;;;;;;6264029;22;20449;-92
2023/02/07 15:32:47;;;;;;;16.17;9.00;;;;;;;;;;6254832;23;20422;-91
2023/02/07 15:35:18;;;;;;;18.53;10.07;;;;;;;;;;6253377;23;20444;-90
2023/02/07 15:37:46;;;;;;;17.17;10.23;;;;;;;;;;6266021;22;20362;-89
2023/02/07 15:40:15;;;;;;;17.53;8.50;;;;;;;;;;6239569;22;20457;-91
2023/02/07 15:42:50;;;;;;;15.70;9.17;;;;;;;;;;6240067;22;20492;-92
2023/02/07 15:45:23;;;;;;;14.73;8.80;;;;;;;;;;6253272;23;20418;-95
2023/02/07 15:47:58;;;;;;;15.60;9.50;;;;;;;;;;6251855;23;20421;-93
2023/02/07 15:50:27;;;;;;;16.80;9.30;;;;;;;;;;6250855;23;20751;-93
2023/02/07 15:52:55;;;;;;;17.63;9.60;;;;;;;;;;6246780;23;20508;-94
2023/02/07 15:55:26;;;;;;;18.97;10.10;;;;;;;;;;6248059;23;20468;-94
2023/02/07 15:57:53;;;;;;;20.30;10.90;;;;;;;;;;6247631;23;20468;-93
2023/02/07 16:00:22;;;;;;;18.40;9.97;;;;;;;;;;6253751;23;20432;-93
2023/02/07 16:02:55;;;;;;;15.90;10.27;;;;;;;;;;6248986;23;20413;-94
2023/02/07 16:05:27;;;;;;;16.10;9.23;;;;;;;;;;6249635;23;20412;-93
2023/02/07 16:07:54;;;;;;;17.50;10.63;;;;;;;;;;6250236;23;20741;-94
2023/02/07 16:10:32;;;;;;;22.60;9.93;;;;;;;;;;6254256;23;20849;-92
2023/02/07 16:13:00;;;;;;;17.90;10.23;;;;;;;;;;6266989;22;20417;-93
2023/02/07 16:15:29;;;;;;;15.57;9.10;;;;;;;;;;6264605;23;20403;-91